sensor_id;sensor_type;location;lat;lon;timestamp;P1;durP1;ratioP1;P2;durP2;ratioP2
75526;SDS011;64107;49.248;7.006;2023-09-19T09:11:15;2.13;;;1.00;;
75526;SDS011;64107;49.248;7.006;2023-09-19T09:13:43;5.55;;;1.33;;
75526;SDS011;64107;49.248;7.006;2023-09-19T09:16:12;3.17;;;0.80;;
75526;SDS011;64107;49.248;7.006;2023-09-19T09:18:39;4.25;;;1.08;;
75526;SDS011;64107;49.248;7.006;2023-09-19T09:21:06;4.88;;;1.25;;
75526;SDS011;64107;49.248;7.006;2023-09-19T09:23:32;3.78;;;1.27;;
75526;SDS011;64107;49.248;7.006;2023-09-19T09:25:59;6.13;;;1.42;;
75526;SDS011;64107;49.248;7.006;2023-09-19T09:28:28;2.90;;;1.42;;
75526;SDS011;64107;49.248;7.006;2023-09-19T09:30:55;5.60;;;1.27;;
75526;SDS011;64107;49.248;7.006;2023-09-19T09:33:27;2.70;;;1.23;;
75526;SDS011;64107;49.248;7.006;2023-09-19T09:38:26;3.58;;;1.23;;
75526;SDS011;64107;49.248;7.006;2023-09-19T09:40:57;5.38;;;1.08;;
75526;SDS011;64107;49.248;7.006;2023-09-19T09:48:45;2.22;;;0.85;;
75526;SDS011;64107;49.248;7.006;2023-09-19T09:51:32;2.55;;;1.15;;
75526;SDS011;64107;49.248;7.006;2023-09-19T09:54:11;5.22;;;1.10;;
75526;SDS011;64107;49.248;7.006;2023-09-19T09:56:52;2.75;;;1.55;;
75526;SDS011;64107;49.248;7.006;2023-09-19T09:59:19;4.97;;;1.50;;
75526;SDS011;64107;49.248;7.006;2023-09-19T10:01:49;2.25;;;0.90;;
75526;SDS011;64107;49.248;7.006;2023-09-19T10:04:28;7.03;;;1.38;;
75526;SDS011;64107;49.248;7.006;2023-09-19T10:07:01;1.67;;;0.90;;
75526;SDS011;64107;49.248;7.006;2023-09-19T10:09:44;0.60;;;0.55;;
75526;SDS011;64107;49.248;7.006;2023-09-19T10:12:12;3.05;;;0.73;;
75526;SDS011;64107;49.248;7.006;2023-09-19T10:14:38;2.10;;;1.00;;
75526;SDS011;64107;49.248;7.006;2023-09-19T10:17:06;4.15;;;0.90;;
75526;SDS011;64107;49.248;7.006;2023-09-19T10:22:02;0.73;;;0.50;;
75526;SDS011;64107;49.248;7.006;2023-09-19T10:24:29;3.55;;;1.00;;
75526;SDS011;64107;49.248;7.006;2023-09-19T10:26:56;1.90;;;0.98;;
75526;SDS011;64107;49.248;7.006;2023-09-19T10:29:22;3.13;;;0.82;;
75526;SDS011;64107;49.248;7.006;2023-09-19T10:31:51;6.82;;;1.25;;
75526;SDS011;64107;49.248;7.006;2023-09-19T10:34:18;2.45;;;1.63;;
75526;SDS011;64107;49.248;7.006;2023-09-19T10:36:45;2.88;;;0.90;;
75526;SDS011;64107;49.248;7.006;2023-09-19T10:39:13;2.72;;;1.15;;
75526;SDS011;64107;49.248;7.006;2023-09-19T10:41:47;3.17;;;1.00;;
75526;SDS011;64107;49.248;7.006;2023-09-19T10:44:21;1.65;;;0.63;;
75526;SDS011;64107;49.248;7.006;2023-09-19T10:46:50;1.50;;;0.90;;
75526;SDS011;64107;49.248;7.006;2023-09-19T10:49:19;1.95;;;1.20;;
75526;SDS011;64107;49.248;7.006;2023-09-19T10:51:46;1.38;;;0.55;;
75526;SDS011;64107;49.248;7.006;2023-09-19T10:54:15;2.83;;;1.00;;
75526;SDS011;64107;49.248;7.006;2023-09-19T10:56:48;2.25;;;0.82;;
75526;SDS011;64107;49.248;7.006;2023-09-19T11:04:21;1.85;;;1.15;;
75526;SDS011;64107;49.248;7.006;2023-09-19T11:06:59;1.85;;;0.77;;
75526;SDS011;64107;49.248;7.006;2023-09-19T11:09:43;1.30;;;0.82;;
75526;SDS011;64107;49.248;7.006;2023-09-19T11:15:06;2.92;;;0.68;;
75526;SDS011;64107;49.248;7.006;2023-09-19T11:17:39;2.10;;;1.08;;
75526;SDS011;64107;49.248;7.006;2023-09-19T11:30:43;1.02;;;0.75;;
75526;SDS011;64107;49.248;7.006;2023-09-19T11:33:29;2.08;;;1.25;;
75526;SDS011;64107;49.248;7.006;2023-09-19T11:46:17;0.82;;;0.70;;
75526;SDS011;64107;49.248;7.006;2023-09-19T11:48:49;3.45;;;1.30;;
75526;SDS011;64107;49.248;7.006;2023-09-19T11:53:51;2.03;;;0.70;;
75526;SDS011;64107;49.248;7.006;2023-09-19T11:56:22;1.67;;;0.73;;
75526;SDS011;64107;49.248;7.006;2023-09-19T11:58:51;1.73;;;0.68;;
75526;SDS011;64107;49.248;7.006;2023-09-19T12:01:21;2.75;;;1.08;;
75526;SDS011;64107;49.248;7.006;2023-09-19T12:04:00;3.08;;;0.77;;
75526;SDS011;64107;49.248;7.006;2023-09-19T12:06:29;4.30;;;0.70;;
75526;SDS011;64107;49.248;7.006;2023-09-19T12:08:57;1.00;;;0.63;;
75526;SDS011;64107;49.248;7.006;2023-09-19T12:11:28;1.33;;;0.80;;
75526;SDS011;64107;49.248;7.006;2023-09-19T12:13:58;1.92;;;0.70;;
75526;SDS011;64107;49.248;7.006;2023-09-19T12:16:25;0.82;;;0.60;;
75526;SDS011;64107;49.248;7.006;2023-09-19T12:18:55;1.85;;;0.80;;
75526;SDS011;64107;49.248;7.006;2023-09-19T12:24:04;1.50;;;0.73;;
75526;SDS011;64107;49.248;7.006;2023-09-19T12:26:44;2.20;;;0.95;;
75526;SDS011;64107;49.248;7.006;2023-09-19T12:29:13;2.05;;;0.80;;
75526;SDS011;64107;49.248;7.006;2023-09-19T12:31:47;1.08;;;0.60;;
75526;SDS011;64107;49.248;7.006;2023-09-19T12:34:25;2.22;;;0.65;;
75526;SDS011;64107;49.248;7.006;2023-09-19T12:37:05;2.30;;;1.20;;
75526;SDS011;64107;49.248;7.006;2023-09-19T12:39:41;1.58;;;0.60;;
75526;SDS011;64107;49.248;7.006;2023-09-19T12:42:12;2.30;;;0.82;;
75526;SDS011;64107;49.248;7.006;2023-09-19T12:44:40;0.70;;;0.52;;
75526;SDS011;64107;49.248;7.006;2023-09-19T12:47:08;2.85;;;0.65;;
75526;SDS011;64107;49.248;7.006;2023-09-19T12:49:36;2.08;;;0.90;;
75526;SDS011;64107;49.248;7.006;2023-09-19T12:52:20;3.38;;;0.75;;
75526;SDS011;64107;49.248;7.006;2023-09-19T12:54:46;1.88;;;0.88;;
75526;SDS011;64107;49.248;7.006;2023-09-19T12:57:24;2.58;;;1.20;;
75526;SDS011;64107;49.248;7.006;2023-09-19T12:59:52;1.73;;;1.00;;
75526;SDS011;64107;49.248;7.006;2023-09-19T13:02:18;1.88;;;0.60;;
75526;SDS011;64107;49.248;7.006;2023-09-19T13:04:54;1.92;;;0.93;;
75526;SDS011;64107;49.248;7.006;2023-09-19T13:07:43;3.60;;;0.77;;
75526;SDS011;64107;49.248;7.006;2023-09-19T13:10:14;1.17;;;0.65;;
75526;SDS011;64107;49.248;7.006;2023-09-19T13:12:41;1.20;;;0.52;;
75526;SDS011;64107;49.248;7.006;2023-09-19T13:15:12;2.90;;;0.65;;
75526;SDS011;64107;49.248;7.006;2023-09-19T13:17:44;0.98;;;0.75;;
75526;SDS011;64107;49.248;7.006;2023-09-19T13:20:21;0.80;;;0.80;;
75526;SDS011;64107;49.248;7.006;2023-09-19T13:22:52;3.53;;;0.65;;
75526;SDS011;64107;49.248;7.006;2023-09-19T13:25:20;1.30;;;0.93;;
75526;SDS011;64107;49.248;7.006;2023-09-19T13:27:50;2.72;;;1.00;;
75526;SDS011;64107;49.248;7.006;2023-09-19T13:30:21;0.57;;;0.32;;
75526;SDS011;64107;49.248;7.006;2023-09-19T13:32:50;1.55;;;0.63;;
75526;SDS011;64107;49.248;7.006;2023-09-19T13:35:17;0.98;;;0.60;;
75526;SDS011;64107;49.248;7.006;2023-09-19T13:37:43;2.15;;;0.65;;
75526;SDS011;64107;49.248;7.006;2023-09-19T13:40:14;0.82;;;0.60;;
75526;SDS011;64107;49.248;7.006;2023-09-19T13:42:41;1.13;;;0.73;;
75526;SDS011;64107;49.248;7.006;2023-09-19T13:45:07;1.45;;;0.90;;
75526;SDS011;64107;49.248;7.006;2023-09-19T13:47:36;1.17;;;0.63;;
75526;SDS011;64107;49.248;7.006;2023-09-19T13:50:03;1.58;;;1.00;;
75526;SDS011;64107;49.248;7.006;2023-09-19T13:52:31;1.58;;;0.52;;
75526;SDS011;64107;49.248;7.006;2023-09-19T13:54:57;1.60;;;0.73;;
75526;SDS011;64107;49.248;7.006;2023-09-19T13:57:23;1.00;;;0.43;;
75526;SDS011;64107;49.248;7.006;2023-09-19T13:59:51;1.08;;;0.60;;
75526;SDS011;64107;49.248;7.006;2023-09-19T14:02:19;0.73;;;0.65;;
75526;SDS011;64107;49.248;7.006;2023-09-19T14:04:47;1.20;;;0.70;;
75526;SDS011;64107;49.248;7.006;2023-09-19T14:07:14;1.17;;;0.85;;
75526;SDS011;64107;49.248;7.006;2023-09-19T14:09:42;1.30;;;0.82;;
75526;SDS011;64107;49.248;7.006;2023-09-19T14:12:09;1.83;;;1.13;;
75526;SDS011;64107;49.248;7.006;2023-09-19T14:14:35;1.20;;;0.70;;
75526;SDS011;64107;49.248;7.006;2023-09-19T14:17:02;1.08;;;0.77;;
75526;SDS011;64107;49.248;7.006;2023-09-19T14:19:29;0.80;;;0.70;;
75526;SDS011;64107;49.248;7.006;2023-09-19T14:21:55;1.88;;;0.85;;
75526;SDS011;64107;49.248;7.006;2023-09-19T14:24:21;1.15;;;0.70;;
75526;SDS011;64107;49.248;7.006;2023-09-19T14:26:48;3.80;;;0.80;;
75526;SDS011;64107;49.248;7.006;2023-09-19T14:29:15;1.13;;;0.60;;
75526;SDS011;64107;49.248;7.006;2023-09-19T14:31:42;0.90;;;0.70;;
75526;SDS011;64107;49.248;7.006;2023-09-19T14:34:08;0.43;;;0.32;;
75526;SDS011;64107;49.248;7.006;2023-09-19T14:36:35;1.45;;;0.63;;
75526;SDS011;64107;49.248;7.006;2023-09-19T14:39:01;1.90;;;0.68;;
75526;SDS011;64107;49.248;7.006;2023-09-19T14:41:28;0.60;;;0.60;;
75526;SDS011;64107;49.248;7.006;2023-09-19T14:43:56;1.80;;;0.95;;
75526;SDS011;64107;49.248;7.006;2023-09-19T14:46:22;1.55;;;0.88;;
75526;SDS011;64107;49.248;7.006;2023-09-19T14:48:50;1.85;;;0.90;;
75526;SDS011;64107;49.248;7.006;2023-09-19T14:51:17;0.85;;;0.85;;
75526;SDS011;64107;49.248;7.006;2023-09-19T14:53:44;0.70;;;0.60;;
75526;SDS011;64107;49.248;7.006;2023-09-19T14:56:11;0.70;;;0.50;;
75526;SDS011;64107;49.248;7.006;2023-09-19T14:58:40;1.17;;;0.90;;
75526;SDS011;64107;49.248;7.006;2023-09-19T15:01:08;1.42;;;0.77;;
75526;SDS011;64107;49.248;7.006;2023-09-19T15:03:35;0.88;;;0.70;;
75526;SDS011;64107;49.248;7.006;2023-09-19T15:06:03;1.02;;;0.43;;
75526;SDS011;64107;49.248;7.006;2023-09-19T15:08:30;0.85;;;0.50;;
75526;SDS011;64107;49.248;7.006;2023-09-19T15:10:56;1.85;;;0.80;;
75526;SDS011;64107;49.248;7.006;2023-09-19T15:13:23;3.55;;;0.50;;
75526;SDS011;64107;49.248;7.006;2023-09-19T15:15:58;1.02;;;0.45;;
75526;SDS011;64107;49.248;7.006;2023-09-19T15:18:30;1.65;;;0.50;;
75526;SDS011;64107;49.248;7.006;2023-09-19T15:23:31;0.93;;;0.60;;
75526;SDS011;64107;49.248;7.006;2023-09-19T15:25:59;2.90;;;0.80;;
75526;SDS011;64107;49.248;7.006;2023-09-19T15:28:29;2.60;;;0.65;;
75526;SDS011;64107;49.248;7.006;2023-09-19T15:31:06;0.98;;;0.45;;
75526;SDS011;64107;49.248;7.006;2023-09-19T15:36:06;0.98;;;0.88;;
75526;SDS011;64107;49.248;7.006;2023-09-19T15:41:15;0.57;;;0.50;;
75526;SDS011;64107;49.248;7.006;2023-09-19T15:43:41;0.98;;;0.45;;
75526;SDS011;64107;49.248;7.006;2023-09-19T15:46:07;2.40;;;0.88;;
75526;SDS011;64107;49.248;7.006;2023-09-19T15:48:34;1.23;;;0.60;;
75526;SDS011;64107;49.248;7.006;2023-09-19T15:51:04;0.82;;;0.57;;
75526;SDS011;64107;49.248;7.006;2023-09-19T15:53:41;1.55;;;0.65;;
75526;SDS011;64107;49.248;7.006;2023-09-19T15:56:11;0.40;;;0.40;;
75526;SDS011;64107;49.248;7.006;2023-09-19T15:58:39;0.55;;;0.47;;
75526;SDS011;64107;49.248;7.006;2023-09-19T16:01:14;1.33;;;0.70;;
75526;SDS011;64107;49.248;7.006;2023-09-19T16:03:45;0.60;;;0.60;;
75526;SDS011;64107;49.248;7.006;2023-09-19T16:06:16;1.20;;;0.52;;
75526;SDS011;64107;49.248;7.006;2023-09-19T16:08:44;1.33;;;0.57;;
75526;SDS011;64107;49.248;7.006;2023-09-19T16:11:12;0.60;;;0.50;;
75526;SDS011;64107;49.248;7.006;2023-09-19T16:13:38;1.27;;;0.68;;
75526;SDS011;64107;49.248;7.006;2023-09-19T16:16:06;0.95;;;0.50;;
75526;SDS011;64107;49.248;7.006;2023-09-19T16:18:58;0.93;;;0.60;;
75526;SDS011;64107;49.248;7.006;2023-09-19T16:21:27;1.23;;;0.60;;
75526;SDS011;64107;49.248;7.006;2023-09-19T16:23:55;1.77;;;0.80;;
75526;SDS011;64107;49.248;7.006;2023-09-19T16:26:23;1.00;;;0.60;;
75526;SDS011;64107;49.248;7.006;2023-09-19T16:28:51;1.27;;;0.47;;
75526;SDS011;64107;49.248;7.006;2023-09-19T16:31:18;0.82;;;0.57;;
75526;SDS011;64107;49.248;7.006;2023-09-19T16:33:46;0.75;;;0.40;;
75526;SDS011;64107;49.248;7.006;2023-09-19T16:36:13;0.68;;;0.68;;
75526;SDS011;64107;49.248;7.006;2023-09-19T16:38:44;1.27;;;0.70;;
75526;SDS011;64107;49.248;7.006;2023-09-19T16:41:11;0.50;;;0.40;;
75526;SDS011;64107;49.248;7.006;2023-09-19T16:43:38;0.73;;;0.52;;
75526;SDS011;64107;49.248;7.006;2023-09-19T16:46:05;1.52;;;0.57;;
75526;SDS011;64107;49.248;7.006;2023-09-19T16:48:41;2.95;;;0.77;;
75526;SDS011;64107;49.248;7.006;2023-09-19T16:51:11;1.83;;;0.80;;
75526;SDS011;64107;49.248;7.006;2023-09-19T16:53:38;1.50;;;0.45;;
75526;SDS011;64107;49.248;7.006;2023-09-19T16:56:09;0.80;;;0.57;;
75526;SDS011;64107;49.248;7.006;2023-09-19T16:58:41;1.38;;;0.63;;
75526;SDS011;64107;49.248;7.006;2023-09-19T17:01:12;3.40;;;0.57;;
75526;SDS011;64107;49.248;7.006;2023-09-19T17:03:40;0.85;;;0.50;;
75526;SDS011;64107;49.248;7.006;2023-09-19T17:06:07;0.68;;;0.40;;
75526;SDS011;64107;49.248;7.006;2023-09-19T17:08:35;1.48;;;0.60;;
75526;SDS011;64107;49.248;7.006;2023-09-19T17:11:06;1.90;;;0.47;;
75526;SDS011;64107;49.248;7.006;2023-09-19T17:13:34;0.45;;;0.45;;
75526;SDS011;64107;49.248;7.006;2023-09-19T17:16:04;0.55;;;0.52;;
75526;SDS011;64107;49.248;7.006;2023-09-19T17:18:32;2.22;;;0.73;;
75526;SDS011;64107;49.248;7.006;2023-09-19T17:20:59;1.52;;;0.65;;
75526;SDS011;64107;49.248;7.006;2023-09-19T17:23:26;0.52;;;0.50;;
75526;SDS011;64107;49.248;7.006;2023-09-19T17:26:06;0.38;;;0.38;;
75526;SDS011;64107;49.248;7.006;2023-09-19T17:28:39;1.33;;;0.50;;
75526;SDS011;64107;49.248;7.006;2023-09-19T17:31:24;1.42;;;0.60;;
75526;SDS011;64107;49.248;7.006;2023-09-19T17:33:51;0.70;;;0.70;;
75526;SDS011;64107;49.248;7.006;2023-09-19T17:36:21;1.15;;;0.75;;
75526;SDS011;64107;49.248;7.006;2023-09-19T17:38:55;0.95;;;0.45;;
75526;SDS011;64107;49.248;7.006;2023-09-19T17:41:24;0.75;;;0.55;;
75526;SDS011;64107;49.248;7.006;2023-09-19T17:43:52;1.38;;;0.52;;
75526;SDS011;64107;49.248;7.006;2023-09-19T17:46:19;1.95;;;0.65;;
75526;SDS011;64107;49.248;7.006;2023-09-19T17:48:47;0.95;;;0.93;;
75526;SDS011;64107;49.248;7.006;2023-09-19T17:51:14;1.00;;;0.70;;
75526;SDS011;64107;49.248;7.006;2023-09-19T17:53:41;1.23;;;0.65;;
75526;SDS011;64107;49.248;7.006;2023-09-19T17:56:09;1.77;;;1.00;;
75526;SDS011;64107;49.248;7.006;2023-09-19T17:58:36;3.63;;;1.00;;
75526;SDS011;64107;49.248;7.006;2023-09-19T18:03:38;1.20;;;0.90;;
75526;SDS011;64107;49.248;7.006;2023-09-19T18:06:08;1.10;;;0.82;;
75526;SDS011;64107;49.248;7.006;2023-09-19T18:08:34;0.98;;;0.80;;
75526;SDS011;64107;49.248;7.006;2023-09-19T18:11:01;1.05;;;0.70;;
75526;SDS011;64107;49.248;7.006;2023-09-19T18:13:28;3.88;;;0.80;;
75526;SDS011;64107;49.248;7.006;2023-09-19T18:15:54;1.85;;;1.10;;
75526;SDS011;64107;49.248;7.006;2023-09-19T18:18:21;4.13;;;1.83;;
75526;SDS011;64107;49.248;7.006;2023-09-19T18:20:48;1.45;;;0.88;;
75526;SDS011;64107;49.248;7.006;2023-09-19T18:23:14;2.15;;;1.20;;
75526;SDS011;64107;49.248;7.006;2023-09-19T18:25:40;1.30;;;0.90;;
75526;SDS011;64107;49.248;7.006;2023-09-19T18:28:06;2.65;;;1.10;;
75526;SDS011;64107;49.248;7.006;2023-09-19T18:30:33;0.98;;;0.73;;
75526;SDS011;64107;49.248;7.006;2023-09-19T18:33:00;1.95;;;1.10;;
75526;SDS011;64107;49.248;7.006;2023-09-19T18:35:26;1.80;;;1.05;;
75526;SDS011;64107;49.248;7.006;2023-09-19T18:37:56;2.15;;;1.10;;
75526;SDS011;64107;49.248;7.006;2023-09-19T18:40:22;2.33;;;1.25;;
75526;SDS011;64107;49.248;7.006;2023-09-19T18:42:48;2.33;;;1.27;;
75526;SDS011;64107;49.248;7.006;2023-09-19T18:45:14;2.92;;;1.00;;
75526;SDS011;64107;49.248;7.006;2023-09-19T18:47:40;3.10;;;1.88;;
75526;SDS011;64107;49.248;7.006;2023-09-19T18:50:07;4.13;;;1.50;;
75526;SDS011;64107;49.248;7.006;2023-09-19T18:52:38;2.33;;;1.45;;
75526;SDS011;64107;49.248;7.006;2023-09-19T18:55:08;2.58;;;1.30;;
75526;SDS011;64107;49.248;7.006;2023-09-19T18:57:36;2.20;;;1.25;;
75526;SDS011;64107;49.248;7.006;2023-09-19T19:00:05;4.25;;;1.40;;
75526;SDS011;64107;49.248;7.006;2023-09-19T19:02:34;1.35;;;0.93;;
75526;SDS011;64107;49.248;7.006;2023-09-19T19:05:00;2.08;;;1.13;;
75526;SDS011;64107;49.248;7.006;2023-09-19T19:07:27;1.30;;;1.00;;
75526;SDS011;64107;49.248;7.006;2023-09-19T19:09:53;2.25;;;1.30;;
75526;SDS011;64107;49.248;7.006;2023-09-19T19:12:20;2.30;;;1.23;;
75526;SDS011;64107;49.248;7.006;2023-09-19T19:14:46;3.92;;;1.40;;
75526;SDS011;64107;49.248;7.006;2023-09-19T19:17:12;3.22;;;1.45;;
75526;SDS011;64107;49.248;7.006;2023-09-19T19:19:40;2.75;;;1.45;;
75526;SDS011;64107;49.248;7.006;2023-09-19T19:22:08;2.38;;;1.38;;
75526;SDS011;64107;49.248;7.006;2023-09-19T19:24:34;2.53;;;1.38;;
75526;SDS011;64107;49.248;7.006;2023-09-19T19:27:00;3.45;;;1.75;;
75526;SDS011;64107;49.248;7.006;2023-09-19T19:29:26;2.95;;;2.03;;
75526;SDS011;64107;49.248;7.006;2023-09-19T19:31:53;3.38;;;1.52;;
75526;SDS011;64107;49.248;7.006;2023-09-19T19:34:19;2.63;;;1.40;;
75526;SDS011;64107;49.248;7.006;2023-09-19T19:36:46;2.78;;;1.45;;
75526;SDS011;64107;49.248;7.006;2023-09-19T19:39:12;2.17;;;1.75;;
75526;SDS011;64107;49.248;7.006;2023-09-19T19:41:40;5.00;;;2.10;;
75526;SDS011;64107;49.248;7.006;2023-09-19T19:44:08;2.35;;;1.40;;
75526;SDS011;64107;49.248;7.006;2023-09-19T19:46:34;4.88;;;1.65;;
75526;SDS011;64107;49.248;7.006;2023-09-19T19:49:01;4.40;;;2.65;;
75526;SDS011;64107;49.248;7.006;2023-09-19T19:51:27;2.45;;;1.20;;
75526;SDS011;64107;49.248;7.006;2023-09-19T19:53:54;8.07;;;4.32;;
75526;SDS011;64107;49.248;7.006;2023-09-19T19:56:21;3.08;;;1.58;;
75526;SDS011;64107;49.248;7.006;2023-09-19T19:58:47;3.42;;;1.40;;
75526;SDS011;64107;49.248;7.006;2023-09-19T20:01:13;2.55;;;1.63;;
75526;SDS011;64107;49.248;7.006;2023-09-19T20:03:40;4.22;;;2.15;;
75526;SDS011;64107;49.248;7.006;2023-09-19T20:06:07;2.90;;;1.30;;
75526;SDS011;64107;49.248;7.006;2023-09-19T20:08:33;3.42;;;1.60;;
75526;SDS011;64107;49.248;7.006;2023-09-19T20:11:06;2.97;;;1.50;;
75526;SDS011;64107;49.248;7.006;2023-09-19T20:13:34;5.10;;;2.42;;
75526;SDS011;64107;49.248;7.006;2023-09-19T20:16:02;3.92;;;1.73;;
75526;SDS011;64107;49.248;7.006;2023-09-19T20:18:29;1.42;;;1.20;;
75526;SDS011;64107;49.248;7.006;2023-09-19T20:21:00;2.97;;;1.20;;
75526;SDS011;64107;49.248;7.006;2023-09-19T20:23:36;3.05;;;1.30;;
75526;SDS011;64107;49.248;7.006;2023-09-19T20:26:02;2.20;;;1.40;;
75526;SDS011;64107;49.248;7.006;2023-09-19T20:28:31;3.92;;;1.50;;
75526;SDS011;64107;49.248;7.006;2023-09-19T20:30:58;2.60;;;1.52;;
75526;SDS011;64107;49.248;7.006;2023-09-19T20:33:35;3.13;;;2.15;;
75526;SDS011;64107;49.248;7.006;2023-09-19T20:36:05;3.15;;;1.50;;
75526;SDS011;64107;49.248;7.006;2023-09-19T20:38:33;3.40;;;1.42;;
75526;SDS011;64107;49.248;7.006;2023-09-19T20:40:59;2.60;;;1.50;;
75526;SDS011;64107;49.248;7.006;2023-09-19T20:43:32;2.88;;;1.50;;
75526;SDS011;64107;49.248;7.006;2023-09-19T20:46:02;2.97;;;1.58;;
75526;SDS011;64107;49.248;7.006;2023-09-19T20:48:32;4.72;;;1.60;;
75526;SDS011;64107;49.248;7.006;2023-09-19T20:51:08;4.30;;;1.85;;
75526;SDS011;64107;49.248;7.006;2023-09-19T20:53:37;2.03;;;1.60;;
75526;SDS011;64107;49.248;7.006;2023-09-19T20:56:03;2.65;;;1.40;;
75526;SDS011;64107;49.248;7.006;2023-09-19T20:58:35;4.68;;;1.83;;
75526;SDS011;64107;49.248;7.006;2023-09-19T21:01:03;3.30;;;1.70;;
75526;SDS011;64107;49.248;7.006;2023-09-19T21:03:30;4.13;;;1.60;;
75526;SDS011;64107;49.248;7.006;2023-09-19T21:06:03;4.22;;;1.92;;
75526;SDS011;64107;49.248;7.006;2023-09-19T21:08:34;2.97;;;2.15;;
75526;SDS011;64107;49.248;7.006;2023-09-19T21:11:16;4.45;;;1.50;;
75526;SDS011;64107;49.248;7.006;2023-09-19T21:13:43;2.05;;;1.35;;
75526;SDS011;64107;49.248;7.006;2023-09-19T21:16:10;1.45;;;1.30;;
75526;SDS011;64107;49.248;7.006;2023-09-19T21:18:37;2.65;;;1.02;;
75526;SDS011;64107;49.248;7.006;2023-09-19T21:21:04;2.35;;;1.40;;
75526;SDS011;64107;49.248;7.006;2023-09-19T21:23:32;4.30;;;1.60;;
75526;SDS011;64107;49.248;7.006;2023-09-19T21:25:58;2.90;;;1.77;;
75526;SDS011;64107;49.248;7.006;2023-09-19T21:28:25;2.38;;;1.73;;
75526;SDS011;64107;49.248;7.006;2023-09-19T21:30:56;2.83;;;2.03;;
75526;SDS011;64107;49.248;7.006;2023-09-19T21:33:32;2.72;;;1.40;;
75526;SDS011;64107;49.248;7.006;2023-09-19T21:36:01;2.58;;;1.40;;
75526;SDS011;64107;49.248;7.006;2023-09-19T21:38:34;5.05;;;1.52;;
75526;SDS011;64107;49.248;7.006;2023-09-19T21:41:07;1.90;;;1.30;;
75526;SDS011;64107;49.248;7.006;2023-09-19T21:43:36;1.75;;;1.15;;
75526;SDS011;64107;49.248;7.006;2023-09-19T21:46:02;3.20;;;1.85;;
75526;SDS011;64107;49.248;7.006;2023-09-19T21:48:29;2.90;;;1.40;;
75526;SDS011;64107;49.248;7.006;2023-09-19T21:50:55;2.25;;;1.60;;
75526;SDS011;64107;49.248;7.006;2023-09-19T21:53:21;1.90;;;1.33;;
75526;SDS011;64107;49.248;7.006;2023-09-19T21:55:48;3.15;;;1.58;;
75526;SDS011;64107;49.248;7.006;2023-09-19T21:58:14;5.00;;;1.73;;
75526;SDS011;64107;49.248;7.006;2023-09-19T22:00:41;3.15;;;1.40;;
75526;SDS011;64107;49.248;7.006;2023-09-19T22:03:11;3.10;;;1.35;;
75526;SDS011;64107;49.248;7.006;2023-09-19T22:05:38;1.75;;;1.52;;
75526;SDS011;64107;49.248;7.006;2023-09-19T22:08:05;3.65;;;1.75;;
75526;SDS011;64107;49.248;7.006;2023-09-19T22:10:44;3.25;;;1.83;;
75526;SDS011;64107;49.248;7.006;2023-09-19T22:13:20;2.10;;;1.70;;
75526;SDS011;64107;49.248;7.006;2023-09-19T22:15:48;2.05;;;1.48;;
75526;SDS011;64107;49.248;7.006;2023-09-19T22:18:15;4.18;;;2.33;;
75526;SDS011;64107;49.248;7.006;2023-09-19T22:20:46;3.70;;;1.90;;
75526;SDS011;64107;49.248;7.006;2023-09-19T22:23:14;3.33;;;2.08;;
75526;SDS011;64107;49.248;7.006;2023-09-19T22:25:40;3.53;;;2.00;;
75526;SDS011;64107;49.248;7.006;2023-09-19T22:28:09;3.92;;;2.20;;
75526;SDS011;64107;49.248;7.006;2023-09-19T22:30:37;2.55;;;1.40;;
75526;SDS011;64107;49.248;7.006;2023-09-19T22:33:10;2.85;;;1.48;;
75526;SDS011;64107;49.248;7.006;2023-09-19T22:35:39;1.70;;;1.20;;
75526;SDS011;64107;49.248;7.006;2023-09-19T22:38:05;2.33;;;1.65;;
75526;SDS011;64107;49.248;7.006;2023-09-19T22:40:35;4.13;;;2.10;;
75526;SDS011;64107;49.248;7.006;2023-09-19T22:43:01;4.88;;;1.42;;
75526;SDS011;64107;49.248;7.006;2023-09-19T22:45:31;1.77;;;1.08;;
75526;SDS011;64107;49.248;7.006;2023-09-19T22:47:59;1.38;;;1.10;;
75526;SDS011;64107;49.248;7.006;2023-09-19T22:50:26;3.40;;;1.30;;
75526;SDS011;64107;49.248;7.006;2023-09-19T22:52:54;4.78;;;1.60;;
75526;SDS011;64107;49.248;7.006;2023-09-19T22:55:21;1.52;;;1.30;;
75526;SDS011;64107;49.248;7.006;2023-09-19T22:57:54;2.22;;;1.10;;
75526;SDS011;64107;49.248;7.006;2023-09-19T23:00:24;3.53;;;1.48;;
75526;SDS011;64107;49.248;7.006;2023-09-19T23:02:52;1.25;;;1.00;;
75526;SDS011;64107;49.248;7.006;2023-09-19T23:05:18;3.40;;;1.52;;
75526;SDS011;64107;49.248;7.006;2023-09-19T23:07:44;3.55;;;1.15;;
75526;SDS011;64107;49.248;7.006;2023-09-19T23:10:18;3.42;;;1.10;;
75526;SDS011;64107;49.248;7.006;2023-09-19T23:12:44;0.93;;;0.80;;
75526;SDS011;64107;49.248;7.006;2023-09-19T23:15:11;1.10;;;1.00;;
75526;SDS011;64107;49.248;7.006;2023-09-19T23:17:42;1.75;;;1.15;;
75526;SDS011;64107;49.248;7.006;2023-09-19T23:20:09;2.28;;;1.48;;
75526;SDS011;64107;49.248;7.006;2023-09-19T23:22:50;1.48;;;1.38;;
75526;SDS011;64107;49.248;7.006;2023-09-19T23:25:20;2.25;;;1.20;;
75526;SDS011;64107;49.248;7.006;2023-09-19T23:27:56;3.53;;;1.40;;
75526;SDS011;64107;49.248;7.006;2023-09-19T23:30:24;2.47;;;1.40;;
75526;SDS011;64107;49.248;7.006;2023-09-19T23:32:54;1.67;;;1.25;;
75526;SDS011;64107;49.248;7.006;2023-09-19T23:35:20;2.75;;;1.60;;
75526;SDS011;64107;49.248;7.006;2023-09-19T23:37:48;2.20;;;1.63;;
75526;SDS011;64107;49.248;7.006;2023-09-19T23:40:14;2.28;;;1.63;;
75526;SDS011;64107;49.248;7.006;2023-09-19T23:42:45;2.40;;;1.50;;
75526;SDS011;64107;49.248;7.006;2023-09-19T23:45:11;2.20;;;1.50;;
75526;SDS011;64107;49.248;7.006;2023-09-19T23:47:38;1.80;;;1.33;;
75526;SDS011;64107;49.248;7.006;2023-09-19T23:50:05;2.85;;;1.42;;
75526;SDS011;64107;49.248;7.006;2023-09-19T23:52:36;2.58;;;1.67;;
75526;SDS011;64107;49.248;7.006;2023-09-19T23:55:02;4.18;;;1.67;;
75526;SDS011;64107;49.248;7.006;2023-09-19T23:57:30;2.75;;;1.92;;
75526;SDS011;64107;49.248;7.006;2023-09-19T23:59:58;3.55;;;1.80;;
